Camano Island, WA (98282)

11:21 AM PST on February 08, 2016 (GMT -0800)
Indian Beach | | Change Station
CLOSE
Current Station
Personal Weather Station
Location: Camano Island, WA
Elevation: 135 ft
Nearby Weather Stations

Elev 135 ft 48.17 °N, 122.52 °W | Updated 2 seconds ago

Clear
Clear
49.0 °F
Feels Like 49 °F
N
3.0
Wind Variable Wind from NW
Gusts 4.0 mph

Today
High -- | Low -- °F
--% Chance of Precip.
Yesterday
High -- | Low -- °F
Precip. -- in
Pressure 30.53 in
Visibility 10.0 miles
Clouds Few 1200 ft
Few 6000 ft
Scattered Clouds 15000 ft
Scattered Clouds 25000 ft
Windchill 49 °F
Dew Point 45 °F
Humidity 86%
Rainfall 0.00 in
Snow Depth Not available.
7:28 AM 5:20 PM
New Moon, 0% visible
METAR KNUW 081856Z 31005KT 10SM FEW012 FEW060 SCT150 SCT250 10/07 A3053 RMK AO2 SLP336 T01000067 $
Pressure 30.53 in
Visibility 10.0 miles
Clouds Few 1200 ft
Few 6000 ft
Scattered Clouds 15000 ft
Scattered Clouds 25000 ft
Windchill 49 °F
Dew Point 45 °F
Humidity 86%
Rainfall 0.00 in
Snow Depth Not available.
7:28 AM 5:20 PM
New Moon, 0% visible
METAR KNUW 081856Z 31005KT 10SM FEW012 FEW060 SCT150 SCT250 10/07 A3053 RMK AO2 SLP336 T01000067 $

10-Day Weather Forecast

Almanac

Astronomy

Feb. 08, 2016 Rise Set
Actual Time
Civil Twilight
Nautical Twilight
Astronomical Twilight
Moon
Length of Visible Light
Length of Day
Tomorrow will be .
, % of the Moon is Illuminated

Today's Extremes

State Highs State Lows

Community

WunderPhotos

Upload Photos

1,891,499 photos uploaded!

WunderBlog® & News

Nearby

Air Quality

  Air Quality AQ Index Pollutant
Not available.

Snow Depth

Station Depth Elevation

Earthquake Activity

City Distance Mag. Time & Date
Minimum magnitude displayed is 2.5.

Coastal Water Temperatures

Place Temperature

Stations

Nearby Weather Stations

Station Location Temp. Windchill Dew Point Humidity Wind Precip. Elev Updated Type
                   

Watches & Warnings

There are currently no watches in effect.